Airfield :
LOGIN :

Register | Disclaimer

   EN    FR    IT 

 










Legend :    VFR   Marginal VFR   IFR   Intensive IFR   Very Intensive IFR
Visi :
Ceiling :
>= 8 km
>= 3000ft
5 to 8 km
1000 to 3000 ft
1500m to 5 km
500 to 1000 ft
800 to 1500m
200 to 500 ft
< 800m
< 200 ft
Symbols :   Thunderstorms  Fog  Heavy snow  Heavy precipitations  Wind > 20 kt
SIGMETs :     Misc.  Thunderstorms  Icing  Turbulence  Mountain Waves  Volcanic Ashes






- Airport Elevation : 0 ft


ENSL - Sleipner A Platform

CURRENT METAR :
  • 270520Z AUTO 18016KT 9999NDV NCD 07/02 Q0994 W04/S4

EXPIRED METARs :
  • 270450Z AUTO 19014KT 9999NDV FEW019/// 07/01 Q0995 W04/S4
  • 270420Z AUTO 19012G22KT 9999NDV SCT019/// 07/03 Q0995 W04/S4
  • 270350Z AUTO 19016KT 9999NDV SCT018/// BKN039/// 07/03 Q0995 W04/S4
  • 270320Z AUTO 23008G20KT 190V250 9999NDV FEW022/// SCT039/// 07/03 Q0995 W04/S4
  • 270250Z AUTO 20010KT 150V240 9999NDV SCT020/// 07/03 Q0996 W04/S4

Expired Forecast.



MET'MAP, your aeronautical weather chart ! - Copyright ORBIFLY December 2007 - Disclaimer

ORBIFLY MET'MAP TEAM :

Programming & Development : Alexandra Zaïnal
Concept & original design : Baudouin d'Aumeries
Assistance for programming : Marc-Olivier Méhu
Technical & hardware support : Manuel Goepfert

Contact : metmap@orbifly.com




SOURCES & CREDITS :

   NOAA